TimeCST,TemperatureF,Dew PointF,Humidity,Sea Level PressureIn,VisibilityMPH,Wind Direction,Wind SpeedMPH,Gust SpeedMPH,PrecipitationIn,Events,Conditions,WindDirDegrees,DateUTC
12:56 AM,30.9,28.9,92,30.14,-9999.0,NW,3.5,-,N/A,,Unknown,310,2012-11-15 06:56:00
1:56 AM,30.9,28.0,89,30.14,-9999.0,NW,3.5,-,N/A,,Unknown,320,2012-11-15 07:56:00
2:56 AM,30.9,28.0,89,30.12,-9999.0,NW,3.5,-,N/A,,Unknown,310,2012-11-15 08:56:00
3:56 AM,30.9,28.0,89,30.11,-9999.0,NW,3.5,-,N/A,,Unknown,310,2012-11-15 09:56:00
4:56 AM,30.9,28.0,89,30.11,-9999.0,NW,3.5,-,N/A,,Unknown,320,2012-11-15 10:56:00
5:56 AM,30.9,28.0,89,30.10,-9999.0,NNW,3.5,-,N/A,,Unknown,330,2012-11-15 11:56:00
6:56 AM,30.9,28.9,92,30.10,-9999.0,Calm,Calm,-,N/A,,Unknown,0,2012-11-15 12:56:00
7:56 AM,36.0,33.1,89,30.11,-9999.0,WNW,3.5,-,N/A,,Unknown,290,2012-11-15 13:56:00
8:56 AM,41.0,36.0,82,30.11,-9999.0,West,6.9,-,N/A,,Unknown,260,2012-11-15 14:56:00
9:56 AM,45.0,36.0,71,30.12,-9999.0,WSW,10.4,-,N/A,,Unknown,240,2012-11-15 15:56:00
10:56 AM,46.9,33.1,59,30.13,-9999.0,West,10.4,18.4,N/A,,Unknown,280,2012-11-15 16:56:00
11:56 AM,48.0,27.0,44,30.14,-9999.0,WNW,8.1,18.4,N/A,,Unknown,290,2012-11-15 17:56:00
12:56 PM,48.0,24.1,39,30.16,-9999.0,Variable,6.9,17.3,N/A,,Unknown,0,2012-11-15 18:56:00
1:56 PM,46.9,19.9,34,30.19,-9999.0,WNW,9.2,-,N/A,,Unknown,300,2012-11-15 19:56:00
2:56 PM,45.0,18.0,34,30.24,-9999.0,Variable,4.6,-,N/A,,Unknown,0,2012-11-15 20:56:00
3:56 PM,39.9,16.0,38,30.29,-9999.0,Variable,4.6,-,N/A,,Unknown,0,2012-11-15 21:56:00
4:56 PM,37.9,14.0,38,30.32,-9999.0,Calm,Calm,-,N/A,,Unknown,0,2012-11-15 22:56:00
5:56 PM,35.1,14.0,42,30.37,-9999.0,Calm,Calm,-,N/A,,Unknown,0,2012-11-15 23:56:00
6:56 PM,34.0,17.1,50,30.40,-9999.0,Variable,3.5,-,N/A,,Unknown,0,2012-11-16 00:56:00
7:56 PM,32.0,16.0,52,30.42,-9999.0,NNW,4.6,-,N/A,,Unknown,330,2012-11-16 01:56:00
8:56 PM,32.0,17.1,54,30.45,-9999.0,South,5.8,-,N/A,,Unknown,180,2012-11-16 02:56:00
9:56 PM,30.9,15.1,52,30.46,-9999.0,Calm,Calm,-,N/A,,Unknown,0,2012-11-16 03:56:00
10:56 PM,28.9,12.9,51,30.47,-9999.0,Variable,5.8,-,N/A,,Unknown,0,2012-11-16 04:56:00
11:56 PM,28.0,12.9,53,30.48,-9999.0,NNW,10.4,17.3,N/A,,Unknown,340,2012-11-16 05:56:00